createdAt,value
2017-04-30T00:00:56.585Z,0
2017-04-30T00:01:56.300Z,0
2017-04-30T00:02:56.950Z,0
2017-04-30T00:03:56.379Z,0
2017-04-30T00:04:56.750Z,0
2017-04-30T00:05:56.737Z,0
2017-04-30T00:06:56.779Z,0
2017-04-30T00:07:56.816Z,0
2017-04-30T00:08:57.161Z,0
2017-04-30T00:09:57.481Z,0
2017-04-30T00:10:56.604Z,0
2017-04-30T00:11:56.941Z,0
2017-04-30T00:12:57.276Z,0
2017-04-30T00:13:57.317Z,0
2017-04-30T00:14:57.050Z,0
2017-04-30T00:15:57.067Z,0
2017-04-30T00:16:57.105Z,0
2017-04-30T00:17:57.135Z,0
2017-04-30T00:18:57.162Z,0
2017-04-30T00:19:57.202Z,0
2017-04-30T00:20:56.923Z,0
2017-04-30T00:21:57.262Z,0
2017-04-30T00:22:57.916Z,0
2017-04-30T00:23:57.935Z,0
2017-04-30T00:24:57.058Z,0
2017-04-30T00:25:57.398Z,0
2017-04-30T00:26:57.737Z,0
2017-04-30T00:27:57.763Z,0
2017-04-30T00:28:57.813Z,0
2017-04-30T00:29:57.526Z,0
2017-04-30T00:30:57.560Z,0
2017-04-30T00:31:57.578Z,0
2017-04-30T00:32:57.963Z,0
2017-04-30T00:33:57.968Z,0
2017-04-30T00:34:57.992Z,0
2017-04-30T00:35:57.416Z,0
2017-04-30T00:36:57.746Z,0
2017-04-30T00:37:57.780Z,0
2017-04-30T00:38:57.807Z,0
2017-04-30T00:39:57.845Z,0
2017-04-30T00:40:57.563Z,0
2017-04-30T00:41:57.605Z,0
2017-04-30T00:42:58.248Z,0
2017-04-30T00:43:57.978Z,0
2017-04-30T00:44:58.000Z,0
2017-04-30T00:45:58.044Z,0
2017-04-30T00:46:57.755Z,0
2017-04-30T00:47:58.726Z,0
2017-04-30T00:48:58.136Z,0
2017-04-30T00:49:58.787Z,0
2017-04-30T00:50:58.202Z,0
2017-04-30T00:51:58.536Z,0
2017-04-30T00:52:57.947Z,0
2017-04-30T00:53:57.985Z,0
2017-04-30T00:54:58.013Z,0
2017-04-30T00:55:58.666Z,0
2017-04-30T00:56:58.087Z,0
2017-04-30T00:57:58.413Z,0
2017-04-30T00:58:58.456Z,0
2017-04-30T00:59:58.798Z,0
2017-04-30T01:00:58.825Z,0
2017-04-30T01:01:58.240Z,0
2017-04-30T01:02:58.900Z,0
2017-04-30T01:03:58.624Z,0
2017-04-30T01:04:58.953Z,0
2017-04-30T01:05:58.373Z,0
2017-04-30T01:06:59.328Z,0
2017-04-30T01:07:58.800Z,0
2017-04-30T01:08:59.092Z,0
2017-04-30T01:09:59.116Z,0
2017-04-30T01:10:58.839Z,0
2017-04-30T01:11:58.589Z,0
2017-04-30T01:12:59.517Z,0
2017-04-30T01:13:59.556Z,0
2017-04-30T01:14:58.655Z,0
2017-04-30T01:15:58.682Z,0
2017-04-30T01:16:59.039Z,0
2017-04-30T01:17:58.748Z,0
2017-04-30T01:18:59.404Z,0
2017-04-30T01:19:59.126Z,0
2017-04-30T01:20:59.160Z,0
2017-04-30T01:21:59.508Z,0
2017-04-30T01:22:59.529Z,0
2017-04-30T01:23:59.255Z,0
2017-04-30T01:24:59.944Z,0
2017-04-30T01:25:59.318Z,0
2017-04-30T01:26:59.671Z,0
2017-04-30T01:27:59.686Z,0
2017-04-30T01:29:00.025Z,0
2017-04-30T01:29:59.450Z,0
2017-04-30T01:30:59.156Z,0
2017-04-30T01:31:59.507Z,0
2017-04-30T01:32:59.249Z,0
2017-04-30T01:33:59.590Z,0
2017-04-30T01:35:00.225Z,0
2017-04-30T01:35:59.331Z,0
2017-04-30T01:36:59.664Z,0
2017-04-30T01:37:59.701Z,0
2017-04-30T01:39:00.033Z,0
2017-04-30T01:40:00.074Z,0
2017-04-30T01:40:59.796Z,0
2017-04-30T01:41:59.828Z,0
2017-04-30T01:42:59.856Z,0
2017-04-30T01:44:00.202Z,0
2017-04-30T01:45:00.539Z,0
2017-04-30T01:45:59.952Z,0
2017-04-30T01:47:00.198Z,0
2017-04-30T01:48:00.329Z,0
2017-04-30T01:49:00.968Z,0
2017-04-30T01:50:00.088Z,0
2017-04-30T01:51:00.429Z,0
2017-04-30T01:51:59.828Z,0
2017-04-30T01:53:00.791Z,0
2017-04-30T01:54:00.201Z,0
2017-04-30T01:55:00.233Z,0
2017-04-30T01:56:00.260Z,0
2017-04-30T01:57:00.598Z,0
2017-04-30T01:58:00.627Z,0
2017-04-30T01:59:00.701Z,0
2017-04-30T02:00:00.082Z,0
2017-04-30T02:01:00.106Z,0
2017-04-30T02:02:00.454Z,0
2017-04-30T02:03:00.482Z,0
2017-04-30T02:04:00.816Z,0
2017-04-30T02:05:00.243Z,0
2017-04-30T02:06:00.578Z,0
2017-04-30T02:07:00.607Z,0
2017-04-30T02:08:01.261Z,0
2017-04-30T02:09:01.300Z,0
2017-04-30T02:10:00.399Z,0
2017-04-30T02:11:01.345Z,0
2017-04-30T02:12:01.073Z,0
2017-04-30T02:13:01.140Z,0
2017-04-30T02:14:01.453Z,0
2017-04-30T02:15:01.487Z,0
2017-04-30T02:16:00.927Z,0
2017-04-30T02:17:01.232Z,0
2017-04-30T02:18:00.956Z,0
2017-04-30T02:19:00.686Z,0
2017-04-30T02:20:01.026Z,0
2017-04-30T02:21:00.739Z,0
2017-04-30T02:22:01.083Z,0
2017-04-30T02:23:00.811Z,0
2017-04-30T02:24:01.142Z,0
2017-04-30T02:25:01.175Z,0
2017-04-30T02:26:01.215Z,0
2017-04-30T02:27:01.253Z,0
2017-04-30T02:28:01.583Z,0
2017-04-30T02:29:01.613Z,0
2017-04-30T02:30:01.640Z,0
2017-04-30T02:31:01.374Z,0
2017-04-30T02:32:01.086Z,0
2017-04-30T02:33:01.449Z,0
2017-04-30T02:34:01.460Z,0
2017-04-30T02:35:01.190Z,0
2017-04-30T02:36:01.835Z,0
2017-04-30T02:37:01.863Z,0
2017-04-30T02:38:01.620Z,0
2017-04-30T02:39:01.633Z,0
2017-04-30T02:40:02.265Z,0
2017-04-30T02:41:01.684Z,0
2017-04-30T02:42:01.708Z,0
2017-04-30T02:43:02.059Z,0
2017-04-30T02:44:02.309Z,0
2017-04-30T02:45:02.122Z,0
2017-04-30T02:46:01.838Z,0
2017-04-30T02:47:01.928Z,0
2017-04-30T02:48:02.217Z,0
2017-04-30T02:49:02.247Z,0
2017-04-30T02:50:02.272Z,0
2017-04-30T02:51:02.294Z,0
2017-04-30T02:52:01.720Z,0
2017-04-30T02:53:02.414Z,0
2017-04-30T02:54:02.403Z,0
2017-04-30T02:55:02.129Z,0
2017-04-30T02:56:01.849Z,0
2017-04-30T02:57:02.178Z,0
2017-04-30T02:58:02.220Z,0
2017-04-30T02:59:02.565Z,0
2017-04-30T03:00:02.283Z,0
2017-04-30T03:01:02.006Z,0
2017-04-30T03:02:02.034Z,0
2017-04-30T03:03:02.383Z,0
2017-04-30T03:04:02.711Z,0
2017-04-30T03:05:02.507Z,0
2017-04-30T03:06:02.161Z,0
2017-04-30T03:07:02.187Z,0
2017-04-30T03:08:02.530Z,0
2017-04-30T03:09:02.557Z,0
2017-04-30T03:10:02.596Z,0
2017-04-30T03:11:02.627Z,0
2017-04-30T03:12:02.342Z,0
2017-04-30T03:13:03.294Z,0
2017-04-30T03:14:03.030Z,0
2017-04-30T03:15:02.742Z,0
2017-04-30T03:16:02.778Z,0
2017-04-30T03:17:02.802Z,0
2017-04-30T03:18:03.156Z,0
2017-04-30T03:19:02.880Z,0
2017-04-30T03:20:02.908Z,0
2017-04-30T03:21:03.239Z,0
2017-04-30T03:22:02.966Z,0
2017-04-30T03:23:02.682Z,0
2017-04-30T03:24:02.734Z,0
2017-04-30T03:25:03.368Z,0
2017-04-30T03:26:02.812Z,0
2017-04-30T03:27:03.111Z,0
2017-04-30T03:28:03.150Z,0
2017-04-30T03:29:02.874Z,0
2017-04-30T03:30:02.909Z,0
2017-04-30T03:31:02.927Z,0
2017-04-30T03:32:02.968Z,0
2017-04-30T03:33:03.629Z,0
2017-04-30T03:34:03.994Z,0
2017-04-30T03:35:03.373Z,0
2017-04-30T03:36:03.409Z,5
2017-04-30T03:37:04.053Z,5
2017-04-30T03:38:04.069Z,5
2017-04-30T03:39:03.797Z,5
2017-04-30T03:40:03.222Z,5
2017-04-30T03:41:03.553Z,5
2017-04-30T03:42:03.889Z,5
2017-04-30T03:43:03.313Z,5
2017-04-30T03:44:03.964Z,10
2017-04-30T03:45:03.373Z,10
2017-04-30T03:46:03.401Z,10
2017-04-30T03:47:03.748Z,10
2017-04-30T03:48:04.082Z,10
2017-04-30T03:49:03.798Z,15
2017-04-30T03:50:03.838Z,15
2017-04-30T03:51:03.553Z,20
2017-04-30T03:52:03.900Z,20
2017-04-30T03:53:04.230Z,25
2017-04-30T03:54:04.261Z,25
2017-04-30T03:55:04.294Z,30
2017-04-30T03:56:03.705Z,30
2017-04-30T03:57:03.740Z,30
2017-04-30T03:58:04.401Z,35
2017-04-30T03:59:04.437Z,40
2017-04-30T04:00:04.156Z,40
2017-04-30T04:01:04.479Z,45
2017-04-30T04:02:03.897Z,45
2017-04-30T04:03:04.560Z,45
2017-04-30T04:04:04.286Z,50
2017-04-30T04:05:03.990Z,50
2017-04-30T04:06:04.337Z,50
2017-04-30T04:07:04.054Z,50
2017-04-30T04:08:04.397Z,50
2017-04-30T04:09:04.740Z,45
2017-04-30T04:10:04.771Z,45
2017-04-30T04:11:04.488Z,50
2017-04-30T04:12:04.522Z,50
2017-04-30T04:13:04.557Z,50
2017-04-30T04:14:04.591Z,50
2017-04-30T04:15:04.554Z,45
2017-04-30T04:16:04.374Z,50
2017-04-30T04:17:04.694Z,50
2017-04-30T04:18:04.723Z,50
2017-04-30T04:19:04.445Z,50
2017-04-30T04:20:05.021Z,55
2017-04-30T04:21:04.513Z,55
2017-04-30T04:22:05.159Z,55
2017-04-30T04:23:05.199Z,60
2017-04-30T04:24:05.236Z,60
2017-04-30T04:25:04.950Z,60
2017-04-30T04:26:04.672Z,60
2017-04-30T04:27:04.714Z,65
2017-04-30T04:28:05.358Z,65
2017-04-30T04:29:05.400Z,65
2017-04-30T04:30:05.121Z,65
2017-04-30T04:31:05.154Z,65
2017-04-30T04:32:05.172Z,70
2017-04-30T04:33:05.211Z,70
2017-04-30T04:34:05.578Z,70
2017-04-30T04:35:04.971Z,70
2017-04-30T04:36:05.002Z,75
2017-04-30T04:37:05.637Z,80
2017-04-30T04:38:05.686Z,80
2017-04-30T04:39:05.416Z,80
2017-04-30T04:40:05.439Z,85
2017-04-30T04:41:05.161Z,85
2017-04-30T04:42:05.804Z,90
2017-04-30T04:43:05.542Z,90
2017-04-30T04:44:05.869Z,95
2017-04-30T04:45:05.910Z,105
2017-04-30T04:46:05.621Z,115
2017-04-30T04:47:05.350Z,145
2017-04-30T04:48:06.033Z,170
2017-04-30T04:49:05.731Z,205
2017-04-30T04:50:05.755Z,205
2017-04-30T04:51:05.474Z,175
2017-04-30T04:52:05.517Z,130
2017-04-30T04:53:06.163Z,110
2017-04-30T04:54:06.546Z,115
2017-04-30T04:55:05.619Z,145
2017-04-30T04:56:05.641Z,185
2017-04-30T04:57:05.686Z,215
2017-04-30T04:58:06.335Z,185
2017-04-30T04:59:05.743Z,140
2017-04-30T05:00:06.410Z,115
2017-04-30T05:01:05.810Z,120
2017-04-30T05:02:06.465Z,140
2017-04-30T05:03:06.182Z,150
2017-04-30T05:04:05.914Z,135
2017-04-30T05:05:06.253Z,130
2017-04-30T05:06:06.287Z,130
2017-04-30T05:07:06.004Z,135
2017-04-30T05:08:06.044Z,130
2017-04-30T05:09:06.391Z,140
2017-04-30T05:10:06.422Z,150
2017-04-30T05:11:06.146Z,130
2017-04-30T05:12:06.787Z,140
2017-04-30T05:13:06.523Z,145
2017-04-30T05:14:06.878Z,160
2017-04-30T05:15:06.892Z,215
2017-04-30T05:16:06.326Z,295
2017-04-30T05:17:06.964Z,305
2017-04-30T05:18:06.387Z,250
2017-04-30T05:19:06.723Z,190
2017-04-30T05:20:06.747Z,175
2017-04-30T05:21:06.490Z,190
2017-04-30T05:22:06.623Z,210
2017-04-30T05:23:06.581Z,270
2017-04-30T05:24:06.883Z,390
2017-04-30T05:25:06.938Z,565
2017-04-30T05:26:06.647Z,645
2017-04-30T05:27:06.688Z,655
2017-04-30T05:28:06.719Z,660
2017-04-30T05:29:07.067Z,670
2017-04-30T05:30:06.790Z,680
2017-04-30T05:31:07.125Z,695
2017-04-30T05:32:07.205Z,705
2017-04-30T05:33:07.521Z,720
2017-04-30T05:34:06.948Z,740
2017-04-30T05:35:06.960Z,750
2017-04-30T05:36:07.014Z,755
2017-04-30T05:37:07.049Z,760
2017-04-30T05:38:07.084Z,760
2017-04-30T05:39:07.746Z,765
2017-04-30T05:40:07.163Z,770
2017-04-30T05:41:07.823Z,775
2017-04-30T05:42:07.238Z,770
2017-04-30T05:43:07.273Z,765
2017-04-30T05:44:07.638Z,760
2017-04-30T05:45:07.663Z,765
2017-04-30T05:46:07.707Z,755
2017-04-30T05:47:08.057Z,755
2017-04-30T05:48:07.797Z,760
2017-04-30T05:49:07.829Z,780
2017-04-30T05:50:08.179Z,795
2017-04-30T05:51:07.608Z,825
2017-04-30T05:52:07.655Z,845
2017-04-30T05:53:07.723Z,880
2017-04-30T05:54:08.352Z,910
2017-04-30T05:55:08.393Z,925
2017-04-30T05:56:07.815Z,950
2017-04-30T05:57:07.865Z,965
2017-04-30T05:58:08.523Z,980
2017-04-30T05:59:08.575Z,995
2017-04-30T06:00:07.994Z,1000
2017-04-30T06:01:08.953Z,1015
2017-04-30T06:02:08.385Z,1015
2017-04-30T06:03:08.608Z,1025
2017-04-30T06:04:09.100Z,1030
2017-04-30T06:05:08.526Z,1030
2017-04-30T06:06:08.876Z,1045
2017-04-30T06:07:08.961Z,1060
2017-04-30T06:08:09.265Z,1080
2017-04-30T06:09:08.691Z,1095
2017-04-30T06:10:08.757Z,1105
2017-04-30T06:11:08.799Z,1120
2017-04-30T06:12:08.840Z,1125
2017-04-30T06:13:08.870Z,1145
2017-04-30T06:14:08.936Z,1155
2017-04-30T06:15:08.662Z,1170
2017-04-30T06:16:09.014Z,1195
2017-04-30T06:17:09.054Z,1220
2017-04-30T06:18:09.740Z,1240
2017-04-30T06:19:08.845Z,1260
2017-04-30T06:20:08.893Z,1270
2017-04-30T06:21:08.934Z,1285
2017-04-30T06:22:08.986Z,1285
2017-04-30T06:23:09.646Z,1270
2017-04-30T06:24:09.078Z,1275
2017-04-30T06:25:09.477Z,1270
2017-04-30T06:26:09.481Z,1280
2017-04-30T06:27:09.227Z,1280
2017-04-30T06:28:09.573Z,1295
2017-04-30T06:29:09.927Z,1310
2017-04-30T06:30:09.676Z,1320
2017-04-30T06:31:09.729Z,1330
2017-04-30T06:32:09.774Z,1340
2017-04-30T06:33:09.816Z,1345
2017-04-30T06:34:10.393Z,1325
2017-04-30T06:35:09.604Z,1310
2017-04-30T06:36:09.960Z,1305
2017-04-30T06:37:09.695Z,1290
2017-04-30T06:38:10.366Z,1285
2017-04-30T06:39:10.405Z,1300
2017-04-30T06:40:09.846Z,1300
2017-04-30T06:41:10.197Z,1310
2017-04-30T06:42:09.963Z,1315
2017-04-30T06:43:10.296Z,1320
2017-04-30T06:44:10.647Z,1325
2017-04-30T06:45:10.402Z,1340
2017-04-30T06:46:10.138Z,1360
2017-04-30T06:47:10.506Z,1370
2017-04-30T06:48:11.176Z,1380
2017-04-30T06:49:11.211Z,1390
2017-04-30T06:50:10.335Z,1410
2017-04-30T06:51:10.698Z,1425
2017-04-30T06:52:10.747Z,1455
2017-04-30T06:53:10.788Z,1470
2017-04-30T06:54:10.839Z,1515
2017-04-30T06:55:10.893Z,1530
2017-04-30T06:56:10.623Z,1555
2017-04-30T06:57:10.679Z,1565
2017-04-30T06:58:11.352Z,1570
2017-04-30T06:59:11.099Z,1580
2017-04-30T07:00:10.835Z,1580
2017-04-30T07:01:10.874Z,1575
2017-04-30T07:02:11.238Z,1585
2017-04-30T07:03:10.986Z,1565
2017-04-30T07:04:11.343Z,1550
2017-04-30T07:05:11.392Z,1545
2017-04-30T07:06:11.128Z,1525
2017-04-30T07:07:11.798Z,1515
2017-04-30T07:08:11.236Z,1510
2017-04-30T07:09:11.591Z,1525
2017-04-30T07:10:11.635Z,1535
2017-04-30T07:11:11.695Z,1550
2017-04-30T07:12:11.738Z,1545
2017-04-30T07:13:12.099Z,1560
2017-04-30T07:14:11.872Z,1580
2017-04-30T07:15:11.894Z,1560
2017-04-30T07:16:11.636Z,1560
2017-04-30T07:17:12.000Z,1530
2017-04-30T07:18:11.737Z,1495
2017-04-30T07:19:12.408Z,1485
2017-04-30T07:20:11.836Z,1470
2017-04-30T07:21:11.895Z,1455
2017-04-30T07:22:11.949Z,1450
2017-04-30T07:23:12.608Z,1445
2017-04-30T07:24:12.357Z,1445
2017-04-30T07:25:12.105Z,1460
2017-04-30T07:26:12.146Z,1475
2017-04-30T07:27:12.511Z,1465
2017-04-30T07:28:12.587Z,1465
2017-04-30T07:29:12.609Z,1440
2017-04-30T07:30:12.354Z,1405
2017-04-30T07:31:12.413Z,1355
2017-04-30T07:32:12.457Z,1330
2017-04-30T07:33:12.821Z,1310
2017-04-30T07:34:12.878Z,1290
2017-04-30T07:35:12.607Z,1300
2017-04-30T07:36:12.666Z,1320
2017-04-30T07:37:13.670Z,1380
2017-04-30T07:38:13.074Z,1430
2017-04-30T07:39:13.432Z,1485
2017-04-30T07:40:13.172Z,1575
2017-04-30T07:41:13.229Z,1625
2017-04-30T07:42:13.284Z,1670
2017-04-30T07:43:13.028Z,1695
2017-04-30T07:44:13.710Z,1715
2017-04-30T07:45:13.141Z,1750
2017-04-30T07:46:13.493Z,1775
2017-04-30T07:47:13.241Z,1770
2017-04-30T07:48:13.292Z,1755
2017-04-30T07:49:13.685Z,1760
2017-04-30T07:50:13.712Z,1790
2017-04-30T07:51:13.759Z,1810
2017-04-30T07:52:13.815Z,1785
2017-04-30T07:53:14.493Z,1750
2017-04-30T07:54:14.238Z,1720
2017-04-30T07:55:13.965Z,1720
2017-04-30T07:56:13.729Z,1720
2017-04-30T07:57:14.087Z,1680
2017-04-30T07:58:14.121Z,1625
2017-04-30T07:59:13.879Z,1600
2017-04-30T08:00:14.235Z,1595
2017-04-30T08:01:14.292Z,1600
2017-04-30T08:02:14.032Z,1635
2017-04-30T08:03:15.021Z,1640
2017-04-30T08:04:14.749Z,1650
2017-04-30T08:05:14.190Z,1670
2017-04-30T08:06:14.232Z,1705
2017-04-30T08:07:14.293Z,1755
2017-04-30T08:08:14.952Z,1810
2017-04-30T08:09:15.018Z,1860
2017-04-30T08:10:14.750Z,1920
2017-04-30T08:11:14.810Z,1970
2017-04-30T08:12:14.857Z,2065
2017-04-30T08:13:14.608Z,2140
2017-04-30T08:14:14.957Z,2180
2017-04-30T08:15:14.707Z,2240
2017-04-30T08:16:14.764Z,2290
2017-04-30T08:17:14.809Z,2320
2017-04-30T08:18:15.174Z,2355
2017-04-30T08:19:15.218Z,2330
2017-04-30T08:20:15.266Z,2370
2017-04-30T08:21:15.016Z,2385
2017-04-30T08:22:15.388Z,2360
2017-04-30T08:23:15.740Z,2330
2017-04-30T08:24:15.797Z,2325
2017-04-30T08:25:15.225Z,2290
2017-04-30T08:26:15.277Z,2270
2017-04-30T08:27:15.953Z,2230
2017-04-30T08:28:16.310Z,2245
2017-04-30T08:29:15.974Z,2275
2017-04-30T08:30:16.119Z,2340
2017-04-30T08:31:15.546Z,2405
2017-04-30T08:32:15.596Z,2455
2017-04-30T08:33:16.270Z,2475
2017-04-30T08:34:16.319Z,2520
2017-04-30T08:35:15.759Z,2550
2017-04-30T08:36:16.108Z,2575
2017-04-30T08:37:16.170Z,2590
2017-04-30T08:38:16.216Z,2605
2017-04-30T08:39:16.588Z,2625
2017-04-30T08:40:16.330Z,2650
2017-04-30T08:41:16.076Z,2660
2017-04-30T08:42:16.736Z,2675
2017-04-30T08:43:16.508Z,2665
2017-04-30T08:44:16.879Z,2645
2017-04-30T08:45:16.897Z,2640
2017-04-30T08:46:16.643Z,2590
2017-04-30T08:47:16.388Z,2560
2017-04-30T08:48:16.748Z,2545
2017-04-30T08:49:16.813Z,2565
2017-04-30T08:50:16.585Z,2580
2017-04-30T08:51:16.601Z,2635
2017-04-30T08:52:16.662Z,2670
2017-04-30T08:53:16.721Z,2705
2017-04-30T08:54:17.385Z,2690
2017-04-30T08:55:17.154Z,2695
2017-04-30T08:56:17.180Z,2720
2017-04-30T08:57:17.232Z,2740
2017-04-30T08:58:16.984Z,2775
2017-04-30T08:59:17.335Z,2790
2017-04-30T09:00:17.395Z,2830
2017-04-30T09:01:17.133Z,2845
2017-04-30T09:02:17.493Z,2865
2017-04-30T09:03:17.234Z,2860
2017-04-30T09:04:17.597Z,2820
2017-04-30T09:05:17.340Z,2780
2017-04-30T09:06:17.401Z,2745
2017-04-30T09:07:17.456Z,2670
2017-04-30T09:08:17.824Z,2540
2017-04-30T09:09:17.871Z,2425
2017-04-30T09:10:17.614Z,2345
2017-04-30T09:11:17.655Z,2250
2017-04-30T09:12:18.071Z,2165
2017-04-30T09:13:18.086Z,2125
2017-04-30T09:14:17.815Z,1830
2017-04-30T09:15:17.875Z,1895
2017-04-30T09:16:17.921Z,1425
2017-04-30T09:17:17.979Z,1985
2017-04-30T09:18:18.649Z,2000
2017-04-30T09:19:18.707Z,2065
2017-04-30T09:20:18.478Z,2075
2017-04-30T09:21:18.493Z,2095
2017-04-30T09:22:18.860Z,2120
2017-04-30T09:23:18.298Z,2175
2017-04-30T09:24:18.659Z,2245
2017-04-30T09:25:18.707Z,2315
2017-04-30T09:26:18.758Z,2330
2017-04-30T09:27:18.534Z,2345
2017-04-30T09:28:19.184Z,2315
2017-04-30T09:29:19.535Z,2280
2017-04-30T09:30:18.667Z,2325
2017-04-30T09:31:18.722Z,2275
2017-04-30T09:32:18.764Z,2225
2017-04-30T09:33:18.821Z,2235
2017-04-30T09:34:19.183Z,2290
2017-04-30T09:35:18.922Z,2285
2017-04-30T09:36:18.980Z,2300
2017-04-30T09:37:19.028Z,2260
2017-04-30T09:38:19.399Z,2260
2017-04-30T09:39:19.756Z,2185
2017-04-30T09:40:19.183Z,2245
2017-04-30T09:41:19.241Z,2135
2017-04-30T09:42:19.644Z,2250
2017-04-30T09:43:19.581Z,2230
2017-04-30T09:44:19.715Z,2180
2017-04-30T09:45:19.453Z,2180
2017-04-30T09:46:19.510Z,775
2017-04-30T09:47:19.575Z,2250
2017-04-30T09:48:19.615Z,2250
2017-04-30T09:49:19.676Z,2285
2017-04-30T09:50:19.730Z,2315
2017-04-30T09:51:19.768Z,2370
2017-04-30T09:52:19.826Z,2450
2017-04-30T09:53:20.191Z,2505
2017-04-30T09:54:20.549Z,2525
2017-04-30T09:55:19.984Z,2550
2017-04-30T09:56:20.346Z,2590
2017-04-30T09:57:21.038Z,2585
2017-04-30T09:58:20.767Z,2535
2017-04-30T09:59:20.800Z,2505
2017-04-30T10:00:20.550Z,2450
2017-04-30T10:01:20.603Z,2370
2017-04-30T10:02:20.652Z,2360
2017-04-30T10:03:21.022Z,2340
2017-04-30T10:04:20.659Z,2315
2017-04-30T10:05:20.519Z,2265
2017-04-30T10:06:20.567Z,2205
2017-04-30T10:07:20.604Z,2235
2017-04-30T10:08:20.972Z,2240
2017-04-30T10:09:21.633Z,2285
2017-04-30T10:10:20.762Z,2340
2017-04-30T10:11:20.808Z,2410
2017-04-30T10:12:20.882Z,2520
2017-04-30T10:13:21.238Z,2635
2017-04-30T10:14:21.294Z,2670
2017-04-30T10:15:21.020Z,435
2017-04-30T10:16:21.079Z,775
2017-04-30T10:17:21.441Z,2600
2017-04-30T10:18:21.803Z,2470
2017-04-30T10:19:21.867Z,2445
2017-04-30T10:20:21.915Z,2335
2017-04-30T10:21:21.651Z,2345
2017-04-30T10:22:21.704Z,2320
2017-04-30T10:23:22.058Z,2360
2017-04-30T10:24:21.807Z,2380
2017-04-30T10:25:21.548Z,2420
2017-04-30T10:26:22.220Z,2440
2017-04-30T10:27:21.660Z,2505
2017-04-30T10:28:22.014Z,2555
2017-04-30T10:29:22.377Z,2555
2017-04-30T10:30:21.815Z,1715
2017-04-30T10:31:22.164Z,2430
2017-04-30T10:32:22.534Z,2480
2017-04-30T10:33:22.279Z,2470
2017-04-30T10:34:22.327Z,2495
2017-04-30T10:35:22.077Z,2555
2017-04-30T10:36:22.126Z,590
2017-04-30T10:37:22.182Z,490
2017-04-30T10:38:22.536Z,2520
2017-04-30T10:39:22.582Z,2490
2017-04-30T10:40:22.637Z,2455
2017-04-30T10:41:22.373Z,2525
2017-04-30T10:42:22.438Z,2555
2017-04-30T10:43:22.829Z,2625
2017-04-30T10:44:23.155Z,2450
2017-04-30T10:45:22.885Z,2435
2017-04-30T10:46:22.937Z,2440
2017-04-30T10:47:22.993Z,2435
2017-04-30T10:48:23.670Z,2385
2017-04-30T10:49:23.102Z,2400
2017-04-30T10:50:23.148Z,2375
2017-04-30T10:51:23.204Z,2340
2017-04-30T10:52:23.253Z,2325
2017-04-30T10:53:23.621Z,2375
2017-04-30T10:54:23.373Z,2395
2017-04-30T10:55:23.089Z,2415
2017-04-30T10:56:23.150Z,2410
2017-04-30T10:57:23.814Z,2425
2017-04-30T10:58:23.556Z,2460
2017-04-30T10:59:23.613Z,2420
2017-04-30T11:00:23.347Z,2470
2017-04-30T11:01:23.709Z,2525
2017-04-30T11:02:23.445Z,640
2017-04-30T11:03:24.115Z,2445
2017-04-30T11:04:24.185Z,1875
2017-04-30T11:05:23.911Z,1095
2017-04-30T11:06:24.274Z,1810
2017-04-30T11:07:24.324Z,2170
2017-04-30T11:08:24.056Z,1480
2017-04-30T11:09:24.107Z,545
2017-04-30T11:10:24.475Z,305
2017-04-30T11:11:23.902Z,290
2017-04-30T11:12:24.261Z,295
2017-04-30T11:13:24.311Z,305
2017-04-30T11:14:24.967Z,320
2017-04-30T11:15:24.100Z,335
2017-04-30T11:16:24.150Z,340
2017-04-30T11:17:24.183Z,345
2017-04-30T11:18:25.082Z,305
2017-04-30T11:19:24.594Z,275
2017-04-30T11:20:24.637Z,275
2017-04-30T11:21:24.379Z,215
2017-04-30T11:22:25.038Z,220
2017-04-30T11:23:25.398Z,230
2017-04-30T11:24:24.829Z,240
2017-04-30T11:25:24.602Z,240
2017-04-30T11:26:24.913Z,230
2017-04-30T11:27:24.976Z,235
2017-04-30T11:28:24.712Z,230
2017-04-30T11:29:25.685Z,220
2017-04-30T11:30:24.800Z,215
2017-04-30T11:31:24.852Z,200
2017-04-30T11:32:25.203Z,195
2017-04-30T11:33:25.237Z,215
2017-04-30T11:34:25.290Z,220
2017-04-30T11:35:25.333Z,180
2017-04-30T11:36:25.374Z,220
2017-04-30T11:37:25.406Z,225
2017-04-30T11:38:25.469Z,205
2017-04-30T11:39:25.819Z,200
2017-04-30T11:40:25.233Z,180
2017-04-30T11:41:25.592Z,190
2017-04-30T11:42:26.259Z,205
2017-04-30T11:43:25.685Z,220
2017-04-30T11:44:25.720Z,235
2017-04-30T11:45:25.468Z,255
2017-04-30T11:46:26.106Z,245
2017-04-30T11:47:25.855Z,215
2017-04-30T11:48:26.192Z,205
2017-04-30T11:49:26.235Z,205
2017-04-30T11:50:25.665Z,220
2017-04-30T11:51:26.015Z,220
2017-04-30T11:52:26.356Z,205
2017-04-30T11:53:25.807Z,165
2017-04-30T11:54:26.442Z,185
2017-04-30T11:55:25.875Z,190
2017-04-30T11:56:26.242Z,195
2017-04-30T11:57:25.951Z,175
2017-04-30T11:58:25.997Z,165
2017-04-30T11:59:26.342Z,165
2017-04-30T12:00:26.386Z,185
2017-04-30T12:01:26.117Z,205
2017-04-30T12:02:26.155Z,230
2017-04-30T12:03:26.194Z,245
2017-04-30T12:04:26.234Z,265
2017-04-30T12:05:26.281Z,250
2017-04-30T12:06:26.319Z,230
2017-04-30T12:07:26.361Z,190
2017-04-30T12:08:27.333Z,220
2017-04-30T12:09:26.758Z,200
2017-04-30T12:10:26.495Z,175
2017-04-30T12:11:26.531Z,175
2017-04-30T12:12:26.589Z,205
2017-04-30T12:13:27.214Z,225
2017-04-30T12:14:26.647Z,235
2017-04-30T12:15:26.989Z,265
2017-04-30T12:16:27.034Z,230
2017-04-30T12:17:27.383Z,205
2017-04-30T12:18:26.806Z,220
2017-04-30T12:19:27.462Z,205
2017-04-30T12:20:26.892Z,185
2017-04-30T12:21:27.232Z,185
2017-04-30T12:22:26.966Z,215
2017-04-30T12:23:27.340Z,235
2017-04-30T12:24:27.352Z,255
2017-04-30T12:25:27.391Z,260
2017-04-30T12:26:27.751Z,250
2017-04-30T12:27:27.479Z,240
2017-04-30T12:28:27.824Z,220
2017-04-30T12:29:27.569Z,195
2017-04-30T12:30:27.291Z,200
2017-04-30T12:31:27.632Z,210
2017-04-30T12:32:27.683Z,205
2017-04-30T12:33:27.712Z,180
2017-04-30T12:34:27.457Z,185
2017-04-30T12:35:27.483Z,200
2017-04-30T12:36:27.840Z,235
2017-04-30T12:37:27.885Z,255
2017-04-30T12:38:28.229Z,240
2017-04-30T12:39:27.997Z,235
2017-04-30T12:40:27.702Z,225
2017-04-30T12:41:27.732Z,215
2017-04-30T12:42:28.088Z,215
2017-04-30T12:43:28.418Z,225
2017-04-30T12:44:27.852Z,220
2017-04-30T12:45:28.206Z,185
2017-04-30T12:46:27.924Z,180
2017-04-30T12:47:28.589Z,185
2017-04-30T12:48:28.939Z,215
2017-04-30T12:49:28.052Z,235
2017-04-30T12:50:28.400Z,215
2017-04-30T12:51:28.744Z,205
2017-04-30T12:52:28.181Z,210
2017-04-30T12:53:28.522Z,185
2017-04-30T12:54:28.869Z,160
2017-04-30T12:55:28.604Z,145
2017-04-30T12:56:28.645Z,150
2017-04-30T12:57:28.679Z,130
2017-04-30T12:58:29.332Z,135
2017-04-30T12:59:29.078Z,145
2017-04-30T13:00:28.495Z,145
2017-04-30T13:01:29.460Z,160
2017-04-30T13:02:28.872Z,165
2017-04-30T13:03:28.913Z,170
2017-04-30T13:04:29.572Z,165
2017-04-30T13:05:28.686Z,165
2017-04-30T13:06:29.048Z,205
2017-04-30T13:07:29.075Z,230
2017-04-30T13:08:28.807Z,240
2017-04-30T13:09:28.846Z,220
2017-04-30T13:10:28.889Z,230
2017-04-30T13:11:29.232Z,225
2017-04-30T13:12:29.272Z,220
2017-04-30T13:13:29.618Z,240
2017-04-30T13:14:29.667Z,205
2017-04-30T13:15:29.082Z,185
2017-04-30T13:16:29.129Z,180
2017-04-30T13:17:29.479Z,155
2017-04-30T13:18:29.519Z,160
2017-04-30T13:19:29.868Z,140
2017-04-30T13:20:29.892Z,135
2017-04-30T13:21:29.940Z,135
2017-04-30T13:22:29.359Z,135
2017-04-30T13:23:29.709Z,135
2017-04-30T13:24:29.753Z,130
2017-04-30T13:25:29.484Z,135
2017-04-30T13:26:29.832Z,125
2017-04-30T13:27:29.878Z,130
2017-04-30T13:28:30.215Z,135
2017-04-30T13:29:30.279Z,135
2017-04-30T13:30:29.991Z,135
2017-04-30T13:31:29.724Z,135
2017-04-30T13:32:30.380Z,140
2017-04-30T13:33:30.418Z,140
2017-04-30T13:34:30.461Z,145
2017-04-30T13:35:29.880Z,170
2017-04-30T13:36:29.911Z,200
2017-04-30T13:37:30.575Z,200
2017-04-30T13:38:30.611Z,190
2017-04-30T13:39:30.347Z,190
2017-04-30T13:40:30.388Z,165
2017-04-30T13:41:30.414Z,150
2017-04-30T13:42:30.147Z,155
2017-04-30T13:43:30.818Z,165
2017-04-30T13:44:30.566Z,135
2017-04-30T13:45:30.298Z,120
2017-04-30T13:46:30.625Z,115
2017-04-30T13:47:31.306Z,120
2017-04-30T13:48:30.693Z,110
2017-04-30T13:49:31.058Z,130
2017-04-30T13:50:30.777Z,130
2017-04-30T13:51:30.815Z,130
2017-04-30T13:52:30.849Z,130
2017-04-30T13:53:30.906Z,135
2017-04-30T13:54:31.556Z,145